Time;durP1;ratioP1;P1;durP2;ratioP2;P2;SDS_P1;SDS_P2;PMS_P1;PMS_P2;Temp;Humidity;BMP_temperature;BMP_pressure;BME280_temperature;BME280_humidity;BME280_pressure;Samples;Min_cycle;Max_cycle;Signal;HPM_P1;HPM_P2
2023/10/05 01:18:50;;;;;;;12.60;9.30;;;;;;;15.04;65.42;94678.44;4975309;28;20153;-70
2023/10/05 01:21:17;;;;;;;16.58;10.27;;;;;;;15.08;65.36;94679.34;4965953;28;20488;-70
2023/10/05 01:23:44;;;;;;;13.45;9.55;;;;;;;15.08;64.91;94668.63;4965626;28;20482;-71
2023/10/05 01:26:11;;;;;;;14.07;9.43;;;;;;;15.14;64.62;94671.94;4964070;28;20019;-71
2023/10/05 01:28:44;;;;;;;15.00;9.68;;;;;;;15.22;63.95;94671.91;5049978;28;20054;-70
2023/10/05 01:31:21;;;;;;;10.82;9.10;;;;;;;15.27;63.70;94674.41;4978082;28;20105;-68
2023/10/05 01:33:47;;;;;;;12.20;8.70;;;;;;;15.35;63.46;94668.22;4966064;28;20513;-70
2023/10/05 01:36:16;;;;;;;16.02;8.75;;;;;;;15.38;62.62;94667.59;4964385;28;20053;-70
2023/10/05 01:38:41;;;;;;;14.02;8.98;;;;;;;15.38;62.71;94672.94;4970039;28;20035;-68
2023/10/05 01:41:09;;;;;;;21.52;9.25;;;;;;;15.46;62.40;94669.47;4965110;28;20033;-71
2023/10/05 01:43:35;;;;;;;14.80;8.05;;;;;;;15.52;61.94;94664.69;4966472;28;20107;-71
2023/10/05 01:46:01;;;;;;;14.88;8.88;;;;;;;14.92;61.62;94558.56;4964574;28;20034;-70
2023/10/05 01:48:28;;;;;;;14.13;7.68;;;;;;;15.56;61.34;94656.78;4968448;28;20073;-69
2023/10/05 01:50:57;;;;;;;18.88;9.45;;;;;;;15.68;61.11;94667.63;4966094;28;20300;-70
2023/10/05 01:53:22;;;;;;;12.02;8.23;;;;;;;15.76;60.95;94661.41;4965881;28;20516;-69
2023/10/05 01:55:50;;;;;;;14.68;8.48;;;;;;;15.79;60.40;94660.78;4969173;28;20027;-70
2023/10/05 01:58:23;;;;;;;16.27;8.75;;;;;;;15.84;60.08;94653.31;4966738;28;20092;-69
2023/10/05 02:00:49;;;;;;;12.05;8.52;;;;;;;16.00;59.38;94666.94;4968497;28;20037;-69
2023/10/05 02:03:17;;;;;;;26.05;8.55;;;;;;;16.04;59.18;94662.47;4965622;28;21252;-69
2023/10/05 02:05:44;;;;;;;16.20;7.53;;;;;;;16.15;58.83;94666.34;4971685;28;20039;-70
2023/10/05 02:08:12;;;;;;;15.00;7.63;;;;;;;16.20;58.42;94666.16;4955768;28;20030;-69
2023/10/05 02:10:45;;;;;;;15.35;7.90;;;;;;;16.25;58.08;94665.97;4968199;28;20041;-70
2023/10/05 02:13:12;;;;;;;13.48;7.82;;;;;;;16.24;57.65;94667.06;4964426;28;20062;-68
2023/10/05 02:15:41;;;;;;;13.27;7.85;;;;;;;16.27;57.22;94657.59;4946296;28;20053;-69
2023/10/05 02:18:23;;;;;;;14.77;7.25;;;;;;;16.33;57.01;94658.22;4958609;28;20109;-69
2023/10/05 02:20:51;;;;;;;13.20;8.15;;;;;;;16.26;57.28;94662.19;4953121;28;20038;-71
2023/10/05 02:23:25;;;;;;;14.13;6.85;;;;;;;16.33;57.20;94653.59;4952940;28;20135;-69
2023/10/05 02:26:00;;;;;;;9.85;6.97;;;;;;;16.39;56.79;94660.34;4951547;28;20037;-68
2023/10/05 02:28:25;;;;;;;12.20;7.40;;;;;;;16.47;56.17;94659.50;4946423;28;20058;-69
2023/10/05 02:30:53;;;;;;;15.45;6.90;;;;;;;16.49;55.84;94667.22;4950962;28;21701;-68
2023/10/05 02:33:22;;;;;;;16.90;7.32;;;;;;;16.51;55.65;94665.00;4951047;28;20382;-70
2023/10/05 02:35:48;;;;;;;12.57;6.75;;;;;;;16.56;55.76;94672.84;4951320;28;20043;-70
2023/10/05 02:38:18;;;;;;;15.07;7.00;;;;;;;16.59;55.42;94672.97;4953964;28;20382;-69
2023/10/05 02:40:53;;;;;;;10.85;6.90;;;;;;;16.62;55.39;94660.81;4952043;28;20522;-69
2023/10/05 02:43:26;;;;;;;15.35;7.45;;;;;;;16.71;54.99;94666.88;4951282;28;20055;-70
2023/10/05 02:45:56;;;;;;;10.35;6.93;;;;;;;16.76;54.98;94669.34;4949960;28;20551;-69
2023/10/05 02:48:23;;;;;;;16.98;6.80;;;;;;;16.81;54.67;94673.72;4955293;28;20053;-68
2023/10/05 02:50:51;;;;;;;12.35;7.05;;;;;;;16.85;54.50;94672.75;4953456;28;20084;-69
2023/10/05 02:53:18;;;;;;;17.10;7.32;;;;;;;16.89;54.33;94665.56;4944091;28;20030;-68
2023/10/05 02:55:51;;;;;;;11.05;6.40;;;;;;;16.95;54.29;94666.16;4963749;28;20050;-70
2023/10/05 02:58:16;;;;;;;10.63;6.65;;;;;;;17.01;53.82;94672.91;4954758;28;20058;-69
2023/10/05 03:00:44;;;;;;;14.75;7.35;;;;;;;17.02;53.34;94674.44;4965098;28;20039;-69
2023/10/05 03:03:13;;;;;;;12.73;6.68;;;;;;;16.96;53.75;94676.59;4952975;28;20113;-69
2023/10/05 03:05:41;;;;;;;16.10;7.07;;;;;;;16.99;53.47;94670.53;4952558;28;20069;-70
2023/10/05 03:08:09;;;;;;;13.32;6.95;;;;;;;16.95;53.22;94666.94;4951484;28;20031;-69
2023/10/05 03:10:36;;;;;;;9.10;6.70;;;;;;;17.00;53.11;94666.72;4952583;28;20173;-69
2023/10/05 03:13:03;;;;;;;15.10;7.28;;;;;;;17.05;52.91;94663.03;4954412;28;20402;-70
2023/10/05 03:15:29;;;;;;;17.15;7.57;;;;;;;17.06;53.11;94668.06;4947897;28;20440;-70
2023/10/05 03:17:57;;;;;;;12.75;6.45;;;;;;;17.16;52.76;94666.88;4950422;28;20130;-68
2023/10/05 03:20:24;;;;;;;8.38;6.32;;;;;;;17.13;52.42;94670.22;4950993;28;20027;-69
2023/10/05 03:22:51;;;;;;;10.43;6.13;;;;;;;17.21;51.88;94671.28;4955579;28;20117;-70
2023/10/05 03:25:17;;;;;;;13.52;6.55;;;;;;;17.21;52.05;94671.28;4946762;28;20473;-69
2023/10/05 03:27:45;;;;;;;13.90;5.80;;;;;;;17.22;51.88;94662.88;4953170;28;20125;-69
2023/10/05 03:30:14;;;;;;;13.35;6.05;;;;;;;17.24;51.82;94662.53;4951470;28;20039;-69
2023/10/05 03:32:40;;;;;;;8.82;6.28;;;;;;;17.18;51.58;94665.44;4948353;28;20034;-69
2023/10/05 03:35:08;;;;;;;9.70;5.60;;;;;;;17.22;51.28;94670.16;4950840;28;20042;-69
2023/10/05 03:37:34;;;;;;;13.35;6.45;;;;;;;17.18;51.43;94676.19;4948857;28;20039;-68
2023/10/05 03:42:28;;;;;;;10.30;6.63;;;;;;;17.27;51.36;94669.94;4950339;28;20046;-69
2023/10/05 03:45:02;;;;;;;12.02;6.18;;;;;;;17.26;51.23;94673.75;4950743;28;20031;-69
2023/10/05 03:47:28;;;;;;;12.93;5.93;;;;;;;17.30;51.06;94675.44;4946864;28;20026;-69
2023/10/05 03:49:55;;;;;;;10.18;6.05;;;;;;;17.27;50.98;94672.63;4952073;28;20022;-69
2023/10/05 03:52:20;;;;;;;15.48;6.85;;;;;;;17.10;51.51;94665.53;4950702;28;20038;-68
2023/10/05 03:54:46;;;;;;;14.60;7.15;;;;;;;17.20;51.39;94680.47;4949603;28;20474;-69
2023/10/05 03:57:11;;;;;;;11.73;6.13;;;;;;;17.17;51.83;94682.69;4953490;28;20790;-69
2023/10/05 03:59:37;;;;;;;14.48;6.78;;;;;;;17.16;51.80;94677.63;4949515;28;20089;-69
2023/10/05 04:02:06;;;;;;;17.00;6.22;;;;;;;17.16;51.64;94678.41;4951393;28;20032;-69
2023/10/05 04:04:35;;;;;;;10.15;6.63;;;;;;;17.25;51.67;94689.09;4952521;28;20119;-68
2023/10/05 04:07:01;;;;;;;11.02;6.25;;;;;;;17.25;51.42;94683.72;4954804;28;20054;-71
2023/10/05 04:09:28;;;;;;;10.00;6.45;;;;;;;17.27;51.56;94686.84;4948739;28;20498;-69
2023/10/05 04:11:57;;;;;;;11.68;5.68;;;;;;;17.35;50.62;94693.25;4950645;28;20066;-69
2023/10/05 04:14:23;;;;;;;14.77;6.32;;;;;;;17.31;50.35;94687.75;4949289;28;20038;-69
2023/10/05 04:16:49;;;;;;;12.80;5.63;;;;;;;17.27;50.40;94689.53;4946764;28;20051;-69
2023/10/05 04:19:17;;;;;;;9.93;5.47;;;;;;;17.28;50.30;94684.94;4951163;28;20623;-69
2023/10/05 04:21:43;;;;;;;10.40;5.00;;;;;;;17.22;50.26;94691.66;4952011;28;20100;-69
2023/10/05 04:24:14;;;;;;;11.73;6.40;;;;;;;17.22;50.34;94694.34;4948712;28;20034;-70
2023/10/05 04:26:44;;;;;;;12.98;5.68;;;;;;;17.15;50.32;94689.53;4951362;28;20487;-69
2023/10/05 04:29:11;;;;;;;12.80;5.30;;;;;;;17.11;50.34;94692.03;4951837;28;20109;-69
2023/10/05 04:31:37;;;;;;;11.38;5.97;;;;;;;17.11;50.38;94694.72;4950660;28;20122;-69
2023/10/05 04:34:11;;;;;;;11.27;5.60;;;;;;;17.07;50.26;94688.47;4944980;28;20172;-69
2023/10/05 04:36:38;;;;;;;7.55;4.82;;;;;;;17.09;50.22;94691.59;4951361;28;20042;-69
2023/10/05 04:39:05;;;;;;;15.05;5.22;;;;;;;17.04;50.37;94691.03;4947457;28;20043;-69
2023/10/05 04:41:31;;;;;;;11.52;5.93;;;;;;;16.92;50.51;94686.41;4950528;28;20030;-69
2023/10/05 04:43:58;;;;;;;7.78;5.30;;;;;;;16.97;50.50;94705.00;4949754;28;20035;-68
2023/10/05 04:46:24;;;;;;;9.15;5.82;;;;;;;16.90;50.66;94701.28;4951349;28;20049;-69
2023/10/05 04:48:56;;;;;;;8.32;5.20;;;;;;;16.85;50.71;94704.19;4946051;28;20126;-68
2023/10/05 04:51:23;;;;;;;11.15;5.93;;;;;;;16.80;50.63;94715.13;4952957;28;20041;-69
2023/10/05 04:53:54;;;;;;;11.63;5.85;;;;;;;16.74;50.62;94703.81;4948029;28;20119;-67
2023/10/05 05:07:06;;;;;;;13.37;5.77;;;;;;;16.58;51.60;94724.31;4949382;28;20096;-69
2023/10/05 05:09:34;;;;;;;15.63;5.95;;;;;;;16.61;51.53;94727.16;4951204;28;20651;-68
2023/10/05 05:12:04;;;;;;;13.35;5.03;;;;;;;16.66;51.25;94731.53;4948783;28;20070;-69
2023/10/05 05:14:42;;;;;;;15.18;5.53;;;;;;;16.65;50.85;94735.34;4952576;28;20043;-69
2023/10/05 05:17:11;;;;;;;15.52;5.45;;;;;;;16.69;50.81;94738.94;4946865;28;20070;-69
2023/10/05 05:19:40;;;;;;;9.05;4.68;;;;;;;16.67;51.12;94744.63;4958041;28;20062;-69
2023/10/05 05:22:07;;;;;;;10.25;5.43;;;;;;;16.67;51.13;94741.19;4944632;28;20035;-70
2023/10/05 05:24:33;;;;;;;11.52;5.35;;;;;;;16.70;51.51;94732.44;4951077;28;20150;-69
2023/10/05 05:27:21;;;;;;;14.45;5.63;;;;;;;16.70;51.17;94737.81;4947331;28;20461;-70
2023/10/05 05:29:48;;;;;;;9.73;5.15;;;;;;;16.71;51.42;94731.34;4952387;28;20047;-69
2023/10/05 05:32:13;;;;;;;11.95;5.32;;;;;;;16.74;51.06;94733.34;4948456;28;20023;-69
2023/10/05 05:34:43;;;;;;;10.40;5.47;;;;;;;16.78;51.02;94739.63;4941490;28;20678;-69
2023/10/05 05:37:13;;;;;;;8.13;4.40;;;;;;;16.77;51.30;94738.06;4949312;28;20127;-69
2023/10/05 05:39:39;;;;;;;12.52;5.00;;;;;;;16.76;51.56;94731.13;4950801;28;20094;-70
2023/10/05 05:42:15;;;;;;;8.45;5.93;;;;;;;16.83;51.26;94741.34;4946429;28;20092;-69
2023/10/05 05:44:43;;;;;;;8.23;5.25;;;;;;;16.86;51.40;94751.44;4955032;28;20035;-69
2023/10/05 05:47:14;;;;;;;11.55;5.35;;;;;;;16.87;51.13;94747.63;4941427;28;20022;-70
2023/10/05 05:49:40;;;;;;;10.30;5.30;;;;;;;16.85;51.28;94745.28;4935844;28;20538;-69
2023/10/05 05:52:08;;;;;;;9.60;6.05;;;;;;;16.84;51.25;94757.13;4954222;28;20035;-70
2023/10/05 05:54:38;;;;;;;15.00;6.57;;;;;;;16.88;51.33;94749.97;4943650;28;20510;-67
2023/10/05 05:57:07;;;;;;;13.05;6.43;;;;;;;16.92;50.44;94752.78;4951515;28;20539;-70
2023/10/05 05:59:34;;;;;;;16.80;7.70;;;;;;;16.95;49.97;94754.84;4946452;28;20126;-70
2023/10/05 06:02:01;;;;;;;12.70;6.57;;;;;;;17.06;49.76;94751.38;4947111;28;20153;-70
2023/10/05 06:04:28;;;;;;;14.93;7.97;;;;;;;17.09;50.21;94756.13;4949426;28;20636;-69
2023/10/05 06:06:53;;;;;;;19.27;7.63;;;;;;;17.15;50.09;94767.47;4945836;28;20042;-69
2023/10/05 06:09:22;;;;;;;12.73;6.45;;;;;;;17.24;49.54;94768.19;4944666;28;20035;-69
2023/10/05 06:11:50;;;;;;;18.35;6.68;;;;;;;17.23;49.63;94765.81;4935539;28;20141;-71
2023/10/05 06:14:17;;;;;;;18.30;6.57;;;;;;;17.20;50.14;94774.56;4951294;28;20039;-70
2023/10/05 06:16:43;;;;;;;31.27;8.25;;;;;;;16.91;49.86;94719.78;4953214;28;20039;-70
2023/10/05 06:19:09;;;;;;;25.38;8.50;;;;;;;17.38;49.42;94767.88;4958126;28;20414;-70
2023/10/05 06:21:35;;;;;;;12.38;6.75;;;;;;;17.40;49.95;94781.78;4955720;28;20026;-68
2023/10/05 06:24:02;;;;;;;11.38;6.13;;;;;;;17.39;48.69;94770.22;4955285;28;20769;-69
2023/10/05 06:26:27;;;;;;;12.27;6.82;;;;;;;17.46;48.56;94775.06;4955862;28;20475;-70
2023/10/05 06:28:53;;;;;;;17.45;7.35;;;;;;;17.35;49.38;94774.72;4951645;28;20039;-69
2023/10/05 06:31:18;;;;;;;18.77;5.60;;;;;;;17.16;48.12;94777.88;4955815;28;20092;-71
2023/10/05 06:33:46;;;;;;;13.68;4.88;;;;;;;17.09;47.38;94774.94;4955955;28;20115;-70
2023/10/05 06:36:11;;;;;;;11.37;5.37;;;;;;;16.98;46.65;94768.38;4953664;28;20430;-70
2023/10/05 06:38:37;;;;;;;7.85;5.18;;;;;;;17.15;46.32;94781.72;4953871;28;20755;-70
2023/10/05 06:41:05;;;;;;;14.38;4.90;;;;;;;17.20;46.97;94778.03;4952522;28;20047;-70
2023/10/05 06:43:37;;;;;;;22.33;4.70;;;;;;;17.29;46.67;94786.00;4957509;28;20045;-69
2023/10/05 06:46:17;;;;;;;14.68;4.50;;;;;;;17.37;46.87;94779.75;4951013;28;20436;-72
2023/10/05 06:48:49;;;;;;;9.45;4.95;;;;;;;17.21;46.08;94765.38;4957571;28;20025;-69
2023/10/05 06:51:27;;;;;;;12.27;4.90;;;;;;;17.29;46.81;94783.31;4950146;28;20437;-70
2023/10/05 06:53:59;;;;;;;15.00;4.75;;;;;;;17.26;46.51;94775.91;4954042;28;20042;-68
2023/10/05 06:56:26;;;;;;;17.45;4.25;;;;;;;17.26;46.68;94782.06;4952494;28;20358;-69
2023/10/05 06:58:51;;;;;;;10.15;4.22;;;;;;;17.32;46.22;94777.25;4954758;28;20518;-70
2023/10/05 07:01:20;;;;;;;10.02;4.35;;;;;;;17.20;46.92;94772.66;4950140;28;20069;-69
2023/10/05 07:03:53;;;;;;;12.35;5.13;;;;;;;17.35;47.51;94769.34;4943385;28;20041;-70
2023/10/05 07:06:29;;;;;;;10.65;4.47;;;;;;;17.46;47.10;94780.44;4945017;28;20034;-69
2023/10/05 07:08:55;;;;;;;12.15;4.50;;;;;;;17.52;46.62;94765.66;4949143;28;20089;-67
2023/10/05 07:11:22;;;;;;;12.20;4.60;;;;;;;17.63;47.16;94777.56;4937854;28;20125;-67
2023/10/05 07:13:48;;;;;;;14.45;5.95;;;;;;;17.57;46.44;94770.81;4933662;28;20043;-70
2023/10/05 07:16:15;;;;;;;13.90;4.57;;;;;;;17.67;46.40;94778.47;4945028;28;20079;-69
2023/10/05 07:18:40;;;;;;;10.80;4.53;;;;;;;17.73;46.55;94774.44;4935330;28;20386;-70
2023/10/05 07:21:08;;;;;;;12.80;5.70;;;;;;;17.66;45.83;94778.78;4933352;28;20372;-71
2023/10/05 07:23:36;;;;;;;13.77;4.97;;;;;;;17.68;46.03;94777.34;4946852;28;20132;-70
2023/10/05 07:26:03;;;;;;;13.48;4.93;;;;;;;17.66;46.36;94774.19;4945924;28;20042;-67
2023/10/05 07:28:28;;;;;;;8.45;4.63;;;;;;;17.51;46.29;94777.53;4947953;28;20043;-69
2023/10/05 07:30:56;;;;;;;13.80;4.85;;;;;;;17.61;46.25;94775.19;4932329;28;20050;-70
2023/10/05 07:33:21;;;;;;;15.18;4.32;;;;;;;17.51;47.26;94766.78;4944276;28;20030;-70
2023/10/05 07:35:47;;;;;;;10.23;4.28;;;;;;;17.56;46.43;94774.63;4952024;28;20045;-70
2023/10/05 07:38:14;;;;;;;9.98;4.40;;;;;;;17.58;46.68;94773.19;4943017;28;20825;-70
2023/10/05 07:40:41;;;;;;;11.85;4.70;;;;;;;17.71;47.38;94778.56;4956710;28;20188;-70
2023/10/05 07:43:07;;;;;;;12.38;4.55;;;;;;;17.76;46.77;94773.75;4948342;28;20517;-70
2023/10/05 07:45:33;;;;;;;19.10;4.90;;;;;;;17.68;46.54;94755.81;4954549;28;20031;-69
2023/10/05 07:48:00;;;;;;;14.05;5.05;;;;;;;17.71;46.22;94779.34;4952941;28;20120;-70
2023/10/05 07:50:26;;;;;;;8.25;5.63;;;;;;;17.81;46.86;94781.63;4956088;28;20043;-70
2023/10/05 07:52:51;;;;;;;11.13;4.97;;;;;;;17.73;46.45;94757.50;4944253;28;20463;-70
2023/10/05 07:55:17;;;;;;;11.90;4.28;;;;;;;17.80;46.21;94777.34;4953450;28;20077;-69
2023/10/05 07:57:42;;;;;;;8.63;5.30;;;;;;;17.76;46.26;94773.75;4949236;28;20537;-71
2023/10/05 08:00:12;;;;;;;8.80;4.55;;;;;;;17.81;46.52;94770.06;4953492;28;20023;-69
2023/10/05 08:02:38;;;;;;;12.13;5.85;;;;;;;17.84;46.29;94770.19;4945815;28;20042;-70
2023/10/05 08:05:05;;;;;;;11.10;5.63;;;;;;;17.78;47.10;94762.66;4951091;28;20688;-69
2023/10/05 08:07:31;;;;;;;8.77;5.32;;;;;;;17.90;47.01;94758.06;4942372;28;20564;-69
2023/10/05 08:09:59;;;;;;;11.88;5.97;;;;;;;17.88;46.72;94770.31;4951246;28;20401;-70
2023/10/05 08:12:27;;;;;;;10.43;5.35;;;;;;;17.88;46.92;94763.03;4954275;28;20026;-70
2023/10/05 08:14:54;;;;;;;11.25;5.43;;;;;;;17.97;47.05;94763.72;4951202;28;20053;-70
2023/10/05 08:17:20;;;;;;;15.80;6.25;;;;;;;18.02;47.10;94760.81;4949912;28;20046;-70
2023/10/05 08:19:45;;;;;;;14.48;5.25;;;;;;;18.11;46.57;94759.91;4942275;28;21138;-69
2023/10/05 08:22:11;;;;;;;8.63;5.50;;;;;;;18.21;46.29;94762.91;4952863;28;20570;-70
2023/10/05 08:24:37;;;;;;;10.85;6.18;;;;;;;18.30;46.80;94760.09;4943394;28;20029;-69
2023/10/05 08:27:03;;;;;;;11.48;5.97;;;;;;;18.38;46.69;94753.81;4950115;28;20058;-70
2023/10/05 08:29:28;;;;;;;12.43;5.05;;;;;;;18.49;46.47;94752.22;4949521;28;20189;-70
2023/10/05 08:31:54;;;;;;;12.57;5.15;;;;;;;18.47;45.45;94754.47;4947391;28;20039;-70
2023/10/05 08:34:22;;;;;;;16.45;5.38;;;;;;;18.53;45.72;94749.63;4951225;28;20031;-70
2023/10/05 08:36:54;;;;;;;13.25;5.30;;;;;;;18.68;45.91;94759.69;4954911;28;20091;-70
2023/10/05 08:39:26;;;;;;;13.70;5.57;;;;;;;18.75;45.92;94758.03;4948284;28;20026;-68
2023/10/05 08:41:58;;;;;;;12.30;6.28;;;;;;;18.83;44.82;94757.09;4953649;28;20092;-70
2023/10/05 08:44:26;;;;;;;12.63;6.07;;;;;;;18.76;45.09;94758.81;4953007;28;20078;-70
2023/10/05 08:46:55;;;;;;;11.85;6.03;;;;;;;18.85;44.90;94749.47;4952592;28;20039;-69
2023/10/05 08:49:21;;;;;;;12.55;5.90;;;;;;;18.87;45.14;94741.78;4950409;28;20038;-70
2023/10/05 08:51:46;;;;;;;19.45;6.38;;;;;;;18.78;44.49;94741.16;4954333;28;20026;-70
2023/10/05 08:54:13;;;;;;;14.52;5.90;;;;;;;18.88;44.87;94751.44;4954729;28;20461;-70
2023/10/05 08:56:47;;;;;;;10.02;5.85;;;;;;;19.00;45.17;94739.06;4942494;28;20039;-70
2023/10/05 08:59:13;;;;;;;10.02;5.78;;;;;;;19.05;45.03;94736.13;4967537;28;20127;-70
2023/10/05 09:01:42;;;;;;;7.85;5.53;;;;;;;18.97;44.73;94735.13;4951426;28;20538;-69
2023/10/05 09:06:52;;;;;;;10.48;5.85;;;;;;;19.01;44.83;94738.72;4953010;28;20118;-69
2023/10/05 09:09:30;;;;;;;12.88;5.78;;;;;;;19.04;45.58;94729.16;4952641;28;20053;-69
2023/10/05 09:11:56;;;;;;;24.20;5.90;;;;;;;19.11;45.20;94732.06;4951429;28;20043;-69
2023/10/05 09:14:38;;;;;;;9.77;6.30;;;;;;;18.97;45.39;94731.66;4951353;28;20035;-69
2023/10/05 09:17:08;;;;;;;12.43;7.38;;;;;;;19.00;46.16;94730.97;4950256;28;20444;-70
2023/10/05 09:19:35;;;;;;;13.02;5.93;;;;;;;19.06;45.80;94732.31;4952245;28;20043;-70
2023/10/05 09:24:26;;;;;;;19.27;6.75;;;;;;;19.18;45.70;94729.53;4939877;28;20035;-70
2023/10/05 09:27:12;;;;;;;14.55;6.53;;;;;;;19.27;45.74;94727.47;4951031;28;20047;-68
2023/10/05 09:29:39;;;;;;;15.40;6.63;;;;;;;19.31;45.52;94712.94;4950599;28;20066;-70
2023/10/05 09:32:08;;;;;;;22.67;7.30;;;;;;;19.43;45.23;94711.28;4958396;28;20125;-70
2023/10/05 09:34:34;;;;;;;13.05;5.93;;;;;;;19.57;44.78;94708.97;4951928;28;20035;-69
2023/10/05 09:37:11;;;;;;;14.90;6.88;;;;;;;19.53;45.79;94719.69;4949040;28;20097;-70
2023/10/05 09:39:46;;;;;;;14.35;6.50;;;;;;;19.60;45.29;94703.66;4946738;28;20297;-71
2023/10/05 09:42:14;;;;;;;;;;;;;;;19.73;45.00;94707.84;4954303;28;20496;-71
2023/10/05 09:44:43;;;;;;;;;;;;;;;19.56;45.06;94705.50;4954132;28;19929;-72
2023/10/05 09:47:12;;;;;;;;;;;;;;;19.68;44.95;94704.63;4956471;28;19918;-70
2023/10/05 09:49:39;;;;;;;;;;;;;;;19.94;45.73;94704.88;4956850;28;19918;-71
2023/10/05 09:52:05;;;;;;;;;;;;;;;20.05;44.65;94702.41;4952489;28;20373;-72
2023/10/05 09:54:31;;;;;;;;;;;;;;;19.94;44.56;94701.41;4962990;28;19922;-72
2023/10/05 09:56:56;;;;;;;;;;;;;;;20.07;44.16;94708.25;4955160;28;20025;-71
2023/10/05 09:59:25;;;;;;;;;;;;;;;20.21;43.58;94694.31;4955668;28;19966;-72
2023/10/05 10:01:51;;;;;;;;;;;;;;;20.29;43.04;94691.41;4949092;28;20431;-71
2023/10/05 10:04:34;;;;;;;;;;;;;;;20.34;42.78;94688.41;4947827;28;19929;-71
2023/10/05 10:07:01;;;;;;;;;;;;;;;20.48;43.34;94682.56;4952966;28;19922;-72
2023/10/05 10:09:27;;;;;;;;;;;;;;;20.44;44.49;94682.47;4954296;28;19914;-71
2023/10/05 10:11:52;;;;;;;;;;;;;;;20.48;43.63;94683.31;4947064;28;20284;-71
2023/10/05 10:14:22;;;;;;;;;;;;;;;20.57;42.85;94680.41;4951678;28;19917;-72
2023/10/05 10:16:52;;;;;;;;;;;;;;;20.48;42.98;94680.63;4946954;28;19953;-71
2023/10/05 10:19:21;;;;;;;;;;;;;;;20.58;42.63;94671.94;4950637;28;19975;-71
2023/10/05 10:21:57;;;;;;;;;;;;;;;20.57;42.80;94672.31;4944748;28;19918;-71
2023/10/05 10:24:24;;;;;;;;;;;;;;;20.57;42.74;94667.69;4949658;28;19988;-70
2023/10/05 10:27:07;;;;;;;;;;;;;;;20.53;42.85;94669.53;4949379;28;20732;-72
2023/10/05 10:29:44;;;;;;;;;;;;;;;20.55;42.28;94661.84;4941714;28;20490;-69
2023/10/05 10:32:15;;;;;;;;;;;;;;;20.61;42.36;94662.34;4943360;28;19930;-71
2023/10/05 10:34:49;;;;;;;;;;;;;;;20.63;42.49;94656.59;4947911;28;19922;-72
2023/10/05 10:37:34;;;;;;;;;;;;;;;20.70;42.54;94651.31;4953238;28;20421;-71
2023/10/05 10:40:00;;;;;;;;;;;;;;;20.82;42.85;94648.47;4951282;28;19922;-72
2023/10/05 10:42:45;;;;;;;;;;;;;;;20.85;42.82;94645.84;4947022;28;19972;-72
2023/10/05 10:45:14;;;;;;;;;;;;;;;20.87;43.02;94640.09;4946618;28;19925;-71
2023/10/05 10:47:45;;;;;;;;;;;;;;;20.96;43.33;94643.38;4948406;28;19922;-70
2023/10/05 10:52:36;;;;;;;;;;;;;;;21.03;42.90;94627.25;4939511;28;19932;-71
2023/10/05 10:55:01;;;;;;;;;;;;;;;21.07;42.40;94622.69;4946832;28;19989;-70
2023/10/05 10:57:27;;;;;;;;;;;;;;;21.16;42.02;94625.94;4944664;28;20076;-71
2023/10/05 11:00:37;;;;;;;;;;;;;;;21.25;41.93;94617.59;4947030;28;19918;-71
2023/10/05 11:02:38;;;;;;;;;;;;;;;21.25;41.47;94612.97;4943939;28;21391;-70
2023/10/05 11:05:04;;;;;;;;;;;;;;;21.29;42.14;94611.09;4943427;28;20494;-72
2023/10/05 11:07:34;;;;;;;;;;;;;;;21.33;41.65;94603.81;4944633;28;19967;-71
2023/10/05 11:10:02;;;;;;;;;;;;;;;21.40;42.75;94601.22;4943619;28;19961;-72
2023/10/05 11:12:30;;;;;;;;;;;;;;;21.41;42.35;94604.72;4946720;28;20569;-72
2023/10/05 11:15:14;;;;;;;;;;;;;;;21.45;42.00;94602.84;4949504;28;19922;-71
2023/10/05 11:17:45;;;;;;;;;;;;;;;21.53;41.83;94592.91;4946504;28;20033;-71
2023/10/05 11:20:25;;;;;;;;;;;;;;;21.61;41.50;94591.91;4938325;28;19953;-72
2023/10/05 11:23:01;;;;;;;;;;;;;;;21.64;41.69;94591.19;4944305;28;20395;-71
2023/10/05 11:25:36;;;;;;;;;;;;;;;21.69;41.47;94588.16;4949142;28;19944;-71
2023/10/05 11:28:07;;;;;;;;;;;;;;;21.76;41.83;94588.25;4945723;28;19967;-69
2023/10/05 11:30:47;;;;;;;;;;;;;;;21.81;41.36;94579.81;4948196;28;20571;-71
2023/10/05 11:33:15;;;;;;;;;;;;;;;21.83;40.98;94569.41;4947190;28;19980;-70
2023/10/05 11:35:48;;;;;;;;;;;;;;;21.95;42.73;94579.25;4945871;28;20353;-71
2023/10/05 11:38:15;;;;;;;;;;;;;;;21.98;41.23;94573.09;4942398;28;20017;-72
2023/10/05 11:40:49;;;;;;;;;;;;;;;22.05;41.81;94568.53;4942394;28;19995;-71
2023/10/05 11:43:18;;;;;;;;;;;;;;;22.10;41.55;94565.50;4948084;28;20727;-71
2023/10/05 11:46:00;;;;;;;;;;;;;;;22.13;41.35;94569.41;4945503;28;19925;-71
2023/10/05 11:48:27;;;;;;;;;;;;;;;22.18;41.09;94567.16;4942632;28;19921;-71
2023/10/05 11:50:52;;;;;;;;;;;;;;;22.19;40.43;94563.28;4941332;28;19933;-71
2023/10/05 11:53:21;;;;;;;;;;;;;;;22.12;40.66;94567.84;4946578;28;19921;-70
2023/10/05 11:55:49;;;;;;;;;;;;;;;22.23;40.46;94549.84;4947245;28;19922;-70
2023/10/05 11:58:15;;;;;;;;;;;;;;;22.21;40.48;94546.66;4940885;28;19926;-71
2023/10/05 12:00:41;;;;;;;;;;;;;;;22.33;42.09;94551.09;4943928;28;19918;-71
2023/10/05 12:03:09;;;;;;;;;;;;;;;22.39;41.36;94546.91;4944222;28;20305;-71
2023/10/05 12:05:34;;;;;;;;;;;;;;;22.16;40.72;94547.78;4944645;28;20078;-71
2023/10/05 12:07:59;;;;;;;;;;;;;;;22.20;40.40;94543.19;4942612;28;20405;-70
2023/10/05 12:10:25;;;;;;;;;;;;;;;22.15;40.41;94551.63;4943081;28;19929;-70
2023/10/05 12:12:50;;;;;;;;;;;;;;;22.34;39.94;94541.84;4955447;28;19913;-71
2023/10/05 12:15:17;;;;;;;;;;;;;;;22.38;40.21;94542.66;4950136;28;20319;-69
2023/10/05 12:17:44;;;;;;;;;;;;;;;22.49;40.26;94547.00;4942270;28;19930;-73
2023/10/05 12:20:13;;;;;;;;;;;;;;;22.47;39.45;94537.72;4942440;28;19995;-71
2023/10/05 12:22:39;;;;;;;;;;;;;;;22.53;40.21;94538.94;4947563;28;19922;-70
2023/10/05 12:25:14;;;;;;;;;;;;;;;22.65;41.17;94530.53;4943817;28;19925;-71
2023/10/05 12:27:40;;;;;;;;;;;;;;;22.82;40.41;94529.94;4936413;28;19961;-70
2023/10/05 12:30:10;;;;;;;;;;;;;;;22.71;39.68;94527.13;4947640;28;20441;-70
2023/10/05 12:32:38;;;;;;;;;;;;;;;22.71;39.23;94523.63;4946670;28;19971;-68
2023/10/05 12:35:06;;;;;;;;;;;;;;;22.81;39.57;94520.25;4943441;28;19925;-72
2023/10/05 12:37:31;;;;;;;;;;;;;;;22.92;39.50;94515.72;4948167;28;19929;-71
2023/10/05 12:39:57;;;;;;;;;;;;;;;22.95;38.73;94516.91;4944907;28;20844;-72
2023/10/05 12:42:22;;;;;;;;;;;;;;;22.90;38.78;94515.31;4943977;28;20245;-70
2023/10/05 12:44:48;;;;;;;;;;;;;;;22.89;38.78;94507.53;4944744;28;20076;-71
2023/10/05 12:47:13;;;;;;;;;;;;;;;22.88;38.85;94509.47;4945066;28;20043;-71
2023/10/05 12:49:39;;;;;;;;;;;;;;;22.95;38.65;94512.25;4937495;28;19926;-71
2023/10/05 12:52:05;;;;;;;;;;;;;;;23.02;39.81;94506.91;4947133;28;20324;-70
2023/10/05 12:54:34;;;;;;;;;;;;;;;23.03;39.63;94505.72;4945367;28;20666;-70
2023/10/05 12:57:09;;;;;;;;;;;;;;;23.05;39.56;94499.94;4942872;28;19926;-71
2023/10/05 12:59:34;;;;;;;;;;;;;;;23.04;38.89;94496.44;4945413;28;19972;-70
2023/10/05 13:02:06;;;;;;;;;;;;;;;23.03;37.71;94504.94;4940729;28;20025;-70
2023/10/05 13:04:32;;;;;;;;;;;;;;;23.03;38.06;94492.16;4946612;28;20500;-69
2023/10/05 13:06:58;;;;;;;;;;;;;;;23.06;38.01;94490.66;4944431;28;20104;-70
2023/10/05 13:09:23;;;;;;;;;;;;;;;23.15;38.16;94489.16;4939332;28;20498;-71
2023/10/05 13:11:49;;;;;;;;;;;;;;;23.17;37.97;94483.38;4942340;28;19922;-72
2023/10/05 13:14:14;;;;;;;;;;;;;;;23.22;37.74;94487.66;4944537;28;20041;-68
2023/10/05 13:16:54;;;;;;;;;;;;;;;23.35;38.17;94486.19;4942873;28;20845;-70
2023/10/05 13:19:19;;;;;;;;;;;;;;;23.38;37.25;94482.72;4941306;28;20718;-69
2023/10/05 13:21:44;;;;;;;;;;;;;;;23.35;37.89;94486.19;4943382;28;20025;-71
2023/10/05 13:24:13;;;;;;;;;;;;;;;23.35;37.27;94483.47;4945047;28;20385;-70
2023/10/05 13:26:45;;;;;;;;;;;;;;;23.37;37.70;94478.44;4938723;28;20032;-71
2023/10/05 13:29:11;;;;;;;;;;;;;;;23.37;37.26;94475.72;4942751;28;20823;-70
2023/10/05 13:31:39;;;;;;;;;;;;;;;23.43;37.08;94476.94;4942548;28;20416;-69
2023/10/05 13:34:09;;;;;;;;;;;;;;;23.54;37.75;94473.16;4941493;28;19922;-71
2023/10/05 13:36:35;;;;;;;;;;;;;;;23.45;37.45;94467.28;4942762;28;19918;-68